Time;durP1;ratioP1;P1;durP2;ratioP2;P2;SDS_P1;SDS_P2;PMS_P1;PMS_P2;Temp;Humidity;BMP_temperature;BMP_pressure;BME280_temperature;BME280_humidity;BME280_pressure;Samples;Min_cycle;Max_cycle;Signal;HPM_P1;HPM_P2
2022/12/30 00:06:38;;;;;;;3.97;2.20;;;;;;;6.75;100.00;100842.34;31439224;28;20048;-78
2022/12/30 00:37:02;;;;;;;5.03;2.20;;;;;;;6.94;100.00;100855.59;31441358;28;20052;-78
2022/12/30 01:07:27;;;;;;;3.47;2.43;;;;;;;7.14;100.00;100848.78;31481007;28;20110;-77
2022/12/30 01:22:29;;;;;;;6.33;3.47;;;;;;;7.17;100.00;100866.94;31416403;28;20083;-78
2022/12/30 01:37:32;;;;;;;6.13;4.13;;;;;;;7.01;100.00;100863.75;31432303;28;20045;-77
2022/12/30 01:52:47;;;;;;;8.30;3.63;;;;;;;7.11;100.00;100873.03;31432258;28;20053;-79
2022/12/30 02:08:12;;;;;;;5.67;3.57;;;;;;;6.94;100.00;100871.78;31428622;28;20433;-78
2022/12/30 02:23:52;;;;;;;8.83;3.30;;;;;;;6.92;100.00;100890.28;31430172;28;20053;-78
2022/12/30 02:39:23;;;;;;;6.03;3.83;;;;;;;7.10;100.00;100885.78;31452010;28;20482;-77
2022/12/30 02:54:26;;;;;;;4.97;2.77;;;;;;;7.09;100.00;100911.22;31418640;28;20102;-77
2022/12/30 03:40:46;;;;;;;7.53;3.30;;;;;;;7.23;100.00;100947.59;31424426;28;20056;-76
2022/12/30 03:55:50;;;;;;;3.57;2.43;;;;;;;7.37;100.00;100947.69;31425102;28;20567;-78
2022/12/30 04:10:52;;;;;;;3.87;2.30;;;;;;;7.38;100.00;100949.22;31407755;28;20494;-79
2022/12/30 04:25:54;;;;;;;4.70;2.87;;;;;;;7.54;100.00;100960.56;31426575;28;20056;-78
2022/12/30 04:40:56;;;;;;;3.93;2.63;;;;;;;7.77;100.00;100971.13;31399754;28;20044;-77
2022/12/30 04:55:58;;;;;;;4.80;2.73;;;;;;;7.97;100.00;100985.13;31399471;28;20059;-76
2022/12/30 05:11:00;;;;;;;5.80;2.40;;;;;;;7.72;100.00;100991.16;31393909;28;20114;-74
2022/12/30 05:26:14;;;;;;;6.80;3.03;;;;;;;7.91;100.00;100997.44;31421919;28;20052;-75
2022/12/30 05:41:16;;;;;;;5.50;3.27;;;;;;;7.79;100.00;101001.25;31401215;28;20056;-78
2022/12/30 05:56:21;;;;;;;7.80;4.33;;;;;;;7.75;100.00;101014.72;31436758;28;20041;-74
2022/12/30 06:11:23;;;;;;;7.80;4.67;;;;;;;7.83;100.00;101029.06;31451836;28;20048;-78
2022/12/30 06:26:25;;;;;;;6.40;3.97;;;;;;;7.73;100.00;101057.56;31431370;28;20639;-77
2022/12/30 06:41:27;;;;;;;16.57;7.30;;;;;;;7.77;100.00;101055.69;31432820;28;20071;-78
2022/12/30 06:56:30;;;;;;;10.47;4.40;;;;;;;7.67;100.00;101063.69;31460966;28;20114;-76
2022/12/30 07:11:31;;;;;;;9.00;5.73;;;;;;;7.80;100.00;101079.22;31419475;28;20056;-78
2022/12/30 10:35:25;;;;;;;5.07;3.57;;;;;;;11.44;100.00;100961.16;31412419;28;20963;-73
2022/12/30 10:50:38;;;;;;;7.77;3.90;;;;;;;11.13;100.00;100969.19;31302586;28;20053;-72
2022/12/30 11:05:40;;;;;;;5.63;3.07;;;;;;;10.94;100.00;100951.47;31311735;28;20049;-71
2022/12/30 11:20:43;;;;;;;5.87;3.33;;;;;;;10.84;100.00;100955.06;31298626;28;20065;-80
2022/12/30 11:35:47;;;;;;;9.43;2.67;;;;;;;10.83;100.00;100947.31;31249387;28;20060;-73
2022/12/30 11:50:52;;;;;;;5.57;2.83;;;;;;;10.96;100.00;100940.22;31206932;28;21027;-74
2022/12/30 12:06:09;;;;;;;8.67;3.53;;;;;;;11.15;100.00;100930.75;31204823;28;20149;-72
2022/12/30 12:21:25;;;;;;;5.20;3.07;;;;;;;11.11;100.00;100921.84;31230792;28;20057;-73
2022/12/30 12:36:45;;;;;;;10.27;3.53;;;;;;;11.16;100.00;100922.19;31213467;28;20717;-74
2022/12/30 12:52:03;;;;;;;7.53;4.07;;;;;;;11.00;100.00;100908.38;31221645;28;20052;-73
2022/12/30 13:07:33;;;;;;;6.53;3.80;;;;;;;11.02;100.00;100899.81;31208867;28;20091;-74
2022/12/30 13:23:01;;;;;;;6.47;3.10;;;;;;;11.06;100.00;100893.19;31209257;28;20068;-74
2022/12/30 13:38:21;;;;;;;5.83;3.53;;;;;;;11.23;100.00;100886.78;31206043;28;20037;-73
2022/12/30 13:53:34;;;;;;;10.50;3.90;;;;;;;11.05;100.00;100869.91;31208444;28;20059;-75
2022/12/30 14:08:39;;;;;;;13.50;4.60;;;;;;;10.81;100.00;100879.03;31205962;28;20046;-79
2022/12/30 14:23:56;;;;;;;8.80;4.07;;;;;;;10.79;100.00;100873.22;31234184;28;20068;-81
2022/12/30 14:39:05;;;;;;;6.43;4.47;;;;;;;10.89;100.00;100864.97;31241616;28;20057;-83
2022/12/30 14:54:13;;;;;;;7.33;3.83;;;;;;;11.05;100.00;100869.91;31238230;28;20303;-77
2022/12/30 15:09:38;;;;;;;12.07;4.47;;;;;;;11.03;100.00;100888.53;31216703;28;20063;-79
2022/12/30 15:24:43;;;;;;;6.83;3.77;;;;;;;10.79;100.00;100897.69;31233068;28;20075;-83
2022/12/30 15:39:57;;;;;;;8.53;4.10;;;;;;;10.90;100.00;100901.06;31221271;28;20057;-73
2022/12/30 15:55:02;;;;;;;13.03;4.37;;;;;;;10.85;100.00;100909.66;31215016;28;20050;-75
2022/12/30 19:50:29;;;;;;;8.70;4.97;;;;;;;11.17;100.00;100361.22;31515531;27;20920;-78
2022/12/30 20:05:34;;;;;;;11.27;5.77;;;;;;;11.16;100.00;100563.50;31491439;28;20063;-77
2022/12/30 20:20:36;;;;;;;13.23;5.47;;;;;;;11.43;100.00;100655.13;31453029;28;20052;-77
2022/12/30 20:35:38;;;;;;;13.30;5.83;;;;;;;11.04;100.00;100683.59;31427443;28;20056;-73
2022/12/30 20:50:40;;;;;;;12.00;5.70;;;;;;;11.23;100.00;100707.44;31385514;28;20049;-74
2022/12/30 21:05:42;;;;;;;11.57;5.80;;;;;;;11.16;100.00;100734.69;31380667;28;20052;-76
2022/12/30 21:20:55;;;;;;;15.50;6.57;;;;;;;11.26;100.00;100744.66;31342350;28;20639;-76
2022/12/30 21:35:57;;;;;;;11.23;5.73;;;;;;;11.22;100.00;100748.59;31364712;28;22087;-75
2022/12/30 22:06:19;;;;;;;13.63;5.43;;;;;;;10.63;100.00;100724.41;31353886;28;20053;-76
2022/12/30 22:21:23;;;;;;;16.03;6.67;;;;;;;10.49;100.00;100728.03;31368827;28;20052;-77
2022/12/30 22:36:24;;;;;;;36.13;14.60;;;;;;;10.63;100.00;100762.41;31354285;28;20061;-76
2022/12/30 22:51:46;;;;;;;10.83;5.80;;;;;;;10.51;100.00;100760.97;31333318;28;20048;-76
2022/12/30 23:06:49;;;;;;;13.13;5.47;;;;;;;10.41;100.00;100740.13;31369208;28;20102;-73
2022/12/30 23:21:51;;;;;;;10.30;5.07;;;;;;;10.37;100.00;100769.25;31397972;28;20053;-72
2022/12/30 23:36:52;;;;;;;12.07;5.73;;;;;;;10.28;100.00;100795.28;31383804;28;20061;-73
2022/12/30 23:51:54;;;;;;;12.27;6.47;;;;;;;10.21;100.00;100829.44;31415636;28;20052;-74
